Time;durP1;ratioP1;P1;durP2;ratioP2;P2;SDS_P1;SDS_P2;PMS_P1;PMS_P2;Temp;Humidity;BMP_temperature;BMP_pressure;BME280_temperature;BME280_humidity;BME280_pressure;Samples;Min_cycle;Max_cycle;Signal;HPM_P1;HPM_P2
2021/08/01 00:00:29;;;;;;;13.35;4.45;;;;;;;;;;5018551;28;20063;-49
2021/08/01 00:02:55;;;;;;;8.60;4.40;;;;;;;;;;5001857;28;20053;-52
2021/08/01 00:05:22;;;;;;;11.15;4.63;;;;;;;;;;5005717;28;20271;-50
2021/08/01 00:07:48;;;;;;;11.27;4.72;;;;;;;;;;4999663;28;20101;-52
2021/08/01 00:10:15;;;;;;;11.63;4.88;;;;;;;;;;5000756;28;20058;-49
2021/08/01 00:12:42;;;;;;;8.15;4.43;;;;;;;;;;5002548;28;20045;-50
2021/08/01 00:15:09;;;;;;;11.45;4.75;;;;;;;;;;5005526;28;20030;-51
2021/08/01 00:17:37;;;;;;;8.07;4.75;;;;;;;;;;5002159;28;20039;-50
2021/08/01 00:20:04;;;;;;;10.25;4.85;;;;;;;;;;5006054;28;20190;-51
2021/08/01 00:22:30;;;;;;;9.05;5.00;;;;;;;;;;5017621;28;20037;-50
2021/08/01 00:24:57;;;;;;;11.98;5.07;;;;;;;;;;5004723;28;20033;-48
2021/08/01 00:27:23;;;;;;;10.30;5.30;;;;;;;;;;5019898;28;20034;-52
2021/08/01 00:29:50;;;;;;;9.15;4.82;;;;;;;;;;5005858;28;20042;-51
2021/08/01 00:32:16;;;;;;;13.27;5.38;;;;;;;;;;5002304;28;20049;-50
2021/08/01 00:34:44;;;;;;;10.88;5.25;;;;;;;;;;5004609;28;20037;-51
2021/08/01 00:37:11;;;;;;;15.05;5.80;;;;;;;;;;5004792;28;20101;-50
2021/08/01 00:39:37;;;;;;;12.90;6.38;;;;;;;;;;5001791;28;20052;-51
2021/08/01 00:42:04;;;;;;;14.77;6.03;;;;;;;;;;5005685;28;20042;-49
2021/08/01 00:44:31;;;;;;;13.95;6.25;;;;;;;;;;5019614;28;20045;-52
2021/08/01 00:46:58;;;;;;;17.33;6.37;;;;;;;;;;5004995;28;20172;-51
2021/08/01 00:49:24;;;;;;;15.10;5.93;;;;;;;;;;4998839;28;20298;-51
2021/08/01 00:51:55;;;;;;;13.32;6.68;;;;;;;;;;5002205;28;20119;-50
2021/08/01 00:54:22;;;;;;;14.40;6.75;;;;;;;;;;4996710;28;20053;-50
2021/08/01 00:56:48;;;;;;;12.02;6.30;;;;;;;;;;5002178;28;20046;-50
2021/08/01 00:59:15;;;;;;;11.45;6.22;;;;;;;;;;4989910;28;20048;-52
2021/08/01 01:01:43;;;;;;;13.95;6.13;;;;;;;;;;5005636;28;20041;-49
2021/08/01 01:04:15;;;;;;;11.48;6.10;;;;;;;;;;4998489;28;20042;-51
2021/08/01 01:06:44;;;;;;;11.60;6.03;;;;;;;;;;4999392;28;20041;-52
2021/08/01 01:09:15;;;;;;;13.80;6.30;;;;;;;;;;5004366;28;20048;-50
2021/08/01 01:11:43;;;;;;;12.85;6.05;;;;;;;;;;5001799;28;20033;-48
2021/08/01 01:14:13;;;;;;;10.67;5.93;;;;;;;;;;5017371;28;20056;-49
2021/08/01 01:16:41;;;;;;;12.43;6.30;;;;;;;;;;5013711;28;20274;-48
2021/08/01 01:19:09;;;;;;;11.32;5.78;;;;;;;;;;5002847;28;20046;-48
2021/08/01 01:21:44;;;;;;;15.63;6.32;;;;;;;;;;5007600;28;20053;-50
2021/08/01 01:24:16;;;;;;;12.30;6.35;;;;;;;;;;5005457;28;20057;-52
2021/08/01 01:26:47;;;;;;;16.13;6.40;;;;;;;;;;5004229;28;20085;-51
2021/08/01 01:29:16;;;;;;;16.30;6.68;;;;;;;;;;5006033;28;20041;-52
2021/08/01 01:31:42;;;;;;;;;;;;;;;;;;4998788;28;20070;-51
2021/08/01 01:34:12;;;;;;;14.15;5.55;;;;;;;;;;4993753;28;20009;-49
2021/08/01 01:36:41;;;;;;;12.95;6.35;;;;;;;;;;4990233;28;20050;-50
2021/08/01 01:39:08;;;;;;;13.23;6.63;;;;;;;;;;5001536;28;20120;-48
2021/08/01 01:41:36;;;;;;;12.60;5.97;;;;;;;;;;4992966;28;20050;-49
2021/08/01 01:44:05;;;;;;;13.70;6.43;;;;;;;;;;5004307;28;20057;-51
2021/08/01 01:46:34;;;;;;;13.93;6.55;;;;;;;;;;5001201;28;20042;-49
2021/08/01 01:49:01;;;;;;;14.45;7.10;;;;;;;;;;5021596;28;20041;-50
2021/08/01 01:51:28;;;;;;;14.80;6.28;;;;;;;;;;4999140;28;20033;-48
2021/08/01 01:53:56;;;;;;;12.52;6.53;;;;;;;;;;5004856;28;20038;-52
2021/08/01 01:56:22;;;;;;;22.55;6.75;;;;;;;;;;5000963;28;20127;-48
2021/08/01 01:58:48;;;;;;;13.38;6.65;;;;;;;;;;5004029;28;20037;-51
2021/08/01 02:01:15;;;;;;;16.10;6.40;;;;;;;;;;4999810;28;20045;-51
2021/08/01 02:03:41;;;;;;;13.43;7.25;;;;;;;;;;5002822;28;20143;-50
2021/08/01 02:06:08;;;;;;;15.85;6.63;;;;;;;;;;5000385;28;20038;-52
2021/08/01 02:08:37;;;;;;;12.70;6.95;;;;;;;;;;5022834;28;20046;-51
2021/08/01 02:11:06;;;;;;;14.98;6.65;;;;;;;;;;5001363;28;20042;-51
2021/08/01 02:13:37;;;;;;;13.45;5.97;;;;;;;;;;5024350;28;20049;-48
2021/08/01 02:16:04;;;;;;;15.57;6.97;;;;;;;;;;5006037;28;20127;-48
2021/08/01 02:18:35;;;;;;;16.15;7.20;;;;;;;;;;5001455;28;20042;-47
2021/08/01 02:21:02;;;;;;;14.18;6.93;;;;;;;;;;5004958;28;20082;-49
2021/08/01 02:23:33;;;;;;;14.00;6.60;;;;;;;;;;5003610;28;20048;-51
2021/08/01 02:26:00;;;;;;;13.32;6.60;;;;;;;;;;5006647;28;20046;-51
2021/08/01 02:28:29;;;;;;;17.73;7.32;;;;;;;;;;4999216;28;20058;-48
2021/08/01 02:30:56;;;;;;;14.38;6.93;;;;;;;;;;5003594;28;20053;-51
2021/08/01 02:33:26;;;;;;;15.23;6.97;;;;;;;;;;4998668;28;20057;-51
2021/08/01 02:35:56;;;;;;;13.23;7.38;;;;;;;;;;5004545;28;20046;-52
2021/08/01 02:38:23;;;;;;;15.02;7.45;;;;;;;;;;5019321;28;20072;-51
2021/08/01 02:40:51;;;;;;;15.00;7.90;;;;;;;;;;5023568;28;20038;-49
2021/08/01 02:43:18;;;;;;;15.88;7.50;;;;;;;;;;5000075;28;20046;-48
2021/08/01 02:45:47;;;;;;;14.25;7.53;;;;;;;;;;5001047;28;20097;-47
2021/08/01 02:48:16;;;;;;;14.02;7.30;;;;;;;;;;4998869;28;20050;-52
2021/08/01 02:50:45;;;;;;;15.65;8.30;;;;;;;;;;5003025;28;20042;-49
2021/08/01 02:53:12;;;;;;;13.55;7.50;;;;;;;;;;5002502;28;20139;-48
2021/08/01 02:55:42;;;;;;;17.30;8.65;;;;;;;;;;5007793;28;20111;-47
2021/08/01 02:58:09;;;;;;;16.35;8.15;;;;;;;;;;5005149;28;20041;-47
2021/08/01 03:06:16;;;;;;;16.25;8.40;;;;;;;;;;5957138;24;20035;-48
2021/08/01 03:08:43;;;;;;;23.17;9.07;;;;;;;;;;5929540;24;20037;-49
2021/08/01 03:11:12;;;;;;;17.63;8.60;;;;;;;;;;5925227;24;20027;-49
2021/08/01 03:13:39;;;;;;;17.63;8.25;;;;;;;;;;5940413;24;20043;-50
2021/08/01 03:16:07;;;;;;;17.80;8.57;;;;;;;;;;5907715;24;20122;-52
2021/08/01 03:18:36;;;;;;;16.77;8.10;;;;;;;;;;5929230;24;20039;-51
2021/08/01 03:21:02;;;;;;;14.40;7.97;;;;;;;;;;5894273;24;20049;-50
2021/08/01 03:23:30;;;;;;;14.18;7.95;;;;;;;;;;5903251;24;20027;-47
2021/08/01 03:25:56;;;;;;;18.77;8.50;;;;;;;;;;5898035;24;20051;-48
2021/08/01 03:28:23;;;;;;;15.02;7.60;;;;;;;;;;5947665;23;20061;-51
2021/08/01 03:30:49;;;;;;;15.43;8.00;;;;;;;;;;5928857;24;20053;-47
2021/08/01 03:33:17;;;;;;;16.23;8.27;;;;;;;;;;5921782;24;20035;-52
2021/08/01 03:35:43;;;;;;;17.33;8.30;;;;;;;;;;5932689;23;20042;-51
2021/08/01 03:38:10;;;;;;;20.17;8.43;;;;;;;;;;5927184;24;20043;-51
2021/08/01 03:40:38;;;;;;;14.13;8.10;;;;;;;;;;5954068;23;20038;-49
2021/08/01 03:43:04;;;;;;;18.90;8.70;;;;;;;;;;5921340;24;20047;-48
2021/08/01 03:45:30;;;;;;;15.50;8.82;;;;;;;;;;5954181;23;20037;-50
2021/08/01 03:47:57;;;;;;;16.75;8.15;;;;;;;;;;5930299;24;20051;-48
2021/08/01 03:50:23;;;;;;;17.00;8.25;;;;;;;;;;5927193;23;20128;-49
2021/08/01 03:52:52;;;;;;;16.67;8.45;;;;;;;;;;5931431;23;20034;-49
2021/08/01 03:55:19;;;;;;;22.15;8.15;;;;;;;;;;5922712;24;20035;-47
2021/08/01 03:57:47;;;;;;;17.00;7.35;;;;;;;;;;5953651;23;20080;-51
2021/08/01 04:00:14;;;;;;;13.97;8.00;;;;;;;;;;5923505;23;20035;-51
2021/08/01 04:02:40;;;;;;;15.70;8.52;;;;;;;;;;5956306;23;20055;-48
2021/08/01 04:05:08;;;;;;;15.10;7.82;;;;;;;;;;5944577;24;20053;-51
2021/08/01 04:07:34;;;;;;;18.13;7.88;;;;;;;;;;6016339;23;20045;-51
2021/08/01 04:10:01;;;;;;;21.77;7.90;;;;;;;;;;6016059;23;20112;-51
2021/08/01 04:12:27;;;;;;;15.32;7.90;;;;;;;;;;6011278;23;20083;-48
2021/08/01 04:14:57;;;;;;;18.58;8.00;;;;;;;;;;5994222;23;20042;-49
2021/08/01 04:17:24;;;;;;;18.10;7.50;;;;;;;;;;5986883;23;20108;-49
2021/08/01 04:19:50;;;;;;;15.75;7.43;;;;;;;;;;6016510;23;20102;-50
2021/08/01 04:22:17;;;;;;;14.48;7.90;;;;;;;;;;5988508;23;20049;-51
2021/08/01 04:24:44;;;;;;;17.80;7.57;;;;;;;;;;5993302;23;20034;-48
2021/08/01 04:27:10;;;;;;;13.68;7.18;;;;;;;;;;5990310;23;20112;-49
2021/08/01 04:29:37;;;;;;;14.10;7.30;;;;;;;;;;5963929;23;20136;-49
2021/08/01 04:32:05;;;;;;;17.02;8.07;;;;;;;;;;5964868;23;20018;-50
2021/08/01 04:34:32;;;;;;;13.38;7.07;;;;;;;;;;6015426;23;20120;-48
2021/08/01 04:36:58;;;;;;;14.23;7.85;;;;;;;;;;5995682;23;20025;-49
2021/08/01 04:39:24;;;;;;;17.35;7.35;;;;;;;;;;5989873;23;20030;-50
2021/08/01 04:41:51;;;;;;;15.77;7.38;;;;;;;;;;5985423;23;20066;-48
2021/08/01 04:44:18;;;;;;;17.17;7.90;;;;;;;;;;5985062;23;20030;-46
2021/08/01 04:46:44;;;;;;;19.40;8.32;;;;;;;;;;5990792;23;20042;-49
2021/08/01 04:49:12;;;;;;;15.35;7.22;;;;;;;;;;5985696;23;20030;-48
2021/08/01 04:51:38;;;;;;;14.37;7.40;;;;;;;;;;5964292;23;20042;-48
2021/08/01 04:54:05;;;;;;;17.73;7.45;;;;;;;;;;5999033;23;20346;-49
2021/08/01 04:56:31;;;;;;;17.92;7.63;;;;;;;;;;5992959;23;20034;-52
2021/08/01 04:58:58;;;;;;;17.42;7.32;;;;;;;;;;5984830;23;20049;-49
2021/08/01 05:01:24;;;;;;;21.90;8.57;;;;;;;;;;5964226;23;20116;-50
2021/08/01 05:03:50;;;;;;;20.23;7.85;;;;;;;;;;5993138;23;20135;-51
2021/08/01 05:06:18;;;;;;;19.73;8.27;;;;;;;;;;5992372;23;20116;-51
2021/08/01 05:08:45;;;;;;;19.25;8.15;;;;;;;;;;5987433;23;20025;-48
2021/08/01 05:11:11;;;;;;;18.58;8.23;;;;;;;;;;5993205;23;20288;-49
2021/08/01 05:13:38;;;;;;;23.05;8.20;;;;;;;;;;5987092;23;20034;-51
2021/08/01 05:16:05;;;;;;;18.60;7.82;;;;;;;;;;6016532;23;20053;-52
2021/08/01 05:18:31;;;;;;;21.30;9.23;;;;;;;;;;5991911;23;20121;-52
2021/08/01 05:20:58;;;;;;;22.08;9.40;;;;;;;;;;6013046;23;20030;-48
2021/08/01 05:23:25;;;;;;;16.83;7.93;;;;;;;;;;5992745;23;20033;-49
2021/08/01 05:25:52;;;;;;;19.67;8.83;;;;;;;;;;5989905;23;20029;-52
2021/08/01 05:28:19;;;;;;;18.98;8.80;;;;;;;;;;5992785;23;20034;-48
2021/08/01 05:30:45;;;;;;;22.75;9.05;;;;;;;;;;5991328;23;20038;-51
2021/08/01 05:33:12;;;;;;;19.45;9.00;;;;;;;;;;5993484;23;20044;-48
2021/08/01 05:35:39;;;;;;;21.40;10.13;;;;;;;;;;5991032;23;20037;-50
2021/08/01 05:38:05;;;;;;;29.45;9.27;;;;;;;;;;5992288;23;20029;-51
2021/08/01 05:40:34;;;;;;;30.25;10.63;;;;;;;;;;5981464;23;20049;-49
2021/08/01 05:43:00;;;;;;;22.38;10.40;;;;;;;;;;5963175;24;20109;-49
2021/08/01 05:45:27;;;;;;;23.95;10.02;;;;;;;;;;5962474;24;20042;-49
2021/08/01 05:47:54;;;;;;;22.13;9.73;;;;;;;;;;5964476;24;20030;-47
2021/08/01 05:50:20;;;;;;;23.75;9.65;;;;;;;;;;5965987;23;20030;-49
2021/08/01 05:52:47;;;;;;;27.55;11.13;;;;;;;;;;5992480;23;20029;-48
2021/08/01 05:55:13;;;;;;;34.47;11.10;;;;;;;;;;5990256;23;20060;-49
2021/08/01 05:57:41;;;;;;;24.60;11.80;;;;;;;;;;5991966;23;20037;-48
2021/08/01 06:00:08;;;;;;;24.50;11.70;;;;;;;;;;5994154;23;20061;-48
2021/08/01 06:02:34;;;;;;;22.95;10.95;;;;;;;;;;5987937;23;20045;-48
2021/08/01 06:05:01;;;;;;;25.45;11.85;;;;;;;;;;5992841;23;20096;-50
2021/08/01 06:07:27;;;;;;;26.20;10.80;;;;;;;;;;5970964;23;20049;-48
2021/08/01 06:09:54;;;;;;;27.20;11.88;;;;;;;;;;5965348;24;20030;-49
2021/08/01 06:12:20;;;;;;;25.48;11.93;;;;;;;;;;5981660;23;20049;-48
2021/08/01 06:14:49;;;;;;;32.33;13.13;;;;;;;;;;5992000;23;20034;-49
2021/08/01 06:17:16;;;;;;;28.60;13.20;;;;;;;;;;5988581;23;20049;-49
2021/08/01 06:19:42;;;;;;;26.05;11.27;;;;;;;;;;5992878;23;20034;-48
2021/08/01 06:22:09;;;;;;;32.42;12.32;;;;;;;;;;5982761;23;20052;-53
2021/08/01 06:24:35;;;;;;;30.95;13.05;;;;;;;;;;5987851;23;20042;-49
2021/08/01 06:27:04;;;;;;;30.90;11.93;;;;;;;;;;5991933;23;20096;-50
2021/08/01 06:29:31;;;;;;;34.95;13.63;;;;;;;;;;5992588;23;20042;-48
2021/08/01 06:31:58;;;;;;;29.48;12.98;;;;;;;;;;5988871;23;20112;-51
2021/08/01 06:34:25;;;;;;;28.90;12.40;;;;;;;;;;5990607;23;20038;-47
2021/08/01 06:36:52;;;;;;;34.90;12.80;;;;;;;;;;5988798;23;20275;-50
2021/08/01 06:39:20;;;;;;;42.88;13.45;;;;;;;;;;6014915;23;20038;-50
2021/08/01 06:41:47;;;;;;;33.47;12.75;;;;;;;;;;5993128;23;20150;-50
2021/08/01 06:44:14;;;;;;;38.30;13.02;;;;;;;;;;5988205;23;20025;-49
2021/08/01 06:46:40;;;;;;;29.95;10.95;;;;;;;;;;5990422;23;20036;-53
2021/08/01 06:49:08;;;;;;;31.45;12.00;;;;;;;;;;5986668;23;20062;-48
2021/08/01 06:51:35;;;;;;;27.55;11.45;;;;;;;;;;5988732;23;20066;-48
2021/08/01 06:54:01;;;;;;;28.08;11.45;;;;;;;;;;6008921;23;20030;-49
2021/08/01 06:56:28;;;;;;;32.92;12.02;;;;;;;;;;5990293;23;20033;-48
2021/08/01 06:58:54;;;;;;;28.77;12.35;;;;;;;;;;5978841;23;20112;-49
2021/08/01 07:01:24;;;;;;;31.83;13.82;;;;;;;;;;5982985;23;20025;-50
2021/08/01 07:03:50;;;;;;;29.08;11.43;;;;;;;;;;5988053;23;20025;-48
2021/08/01 07:06:21;;;;;;;33.33;11.18;;;;;;;;;;6005852;23;20053;-49
2021/08/01 07:08:47;;;;;;;27.48;11.10;;;;;;;;;;6010781;23;20503;-51
2021/08/01 07:11:14;;;;;;;30.08;11.55;;;;;;;;;;5984359;23;20053;-47
2021/08/01 07:13:41;;;;;;;27.77;11.27;;;;;;;;;;5982450;23;20030;-47
2021/08/01 07:16:07;;;;;;;28.02;12.25;;;;;;;;;;5984352;23;20044;-48
2021/08/01 07:18:34;;;;;;;24.85;11.63;;;;;;;;;;5984760;23;20046;-48
2021/08/01 07:21:01;;;;;;;28.38;10.55;;;;;;;;;;5992750;23;20118;-49
2021/08/01 07:23:28;;;;;;;30.75;11.60;;;;;;;;;;5986528;23;20026;-48
2021/08/01 07:25:55;;;;;;;36.90;12.07;;;;;;;;;;5984673;23;20038;-50
2021/08/01 07:28:25;;;;;;;30.58;12.32;;;;;;;;;;6006934;23;20053;-48
2021/08/01 07:30:52;;;;;;;26.33;11.48;;;;;;;;;;5978413;23;20044;-48
2021/08/01 07:33:19;;;;;;;28.67;11.48;;;;;;;;;;5990147;23;20066;-49
2021/08/01 07:35:45;;;;;;;30.90;11.55;;;;;;;;;;5986588;23;20030;-53
2021/08/01 07:38:12;;;;;;;25.10;10.45;;;;;;;;;;5985780;23;20042;-49
2021/08/01 07:40:40;;;;;;;26.42;11.13;;;;;;;;;;5988182;23;20041;-50
2021/08/01 07:43:07;;;;;;;23.23;11.33;;;;;;;;;;5987255;23;20124;-51
2021/08/01 07:45:34;;;;;;;32.53;11.85;;;;;;;;;;5981923;23;20279;-49
2021/08/01 07:48:01;;;;;;;31.63;12.75;;;;;;;;;;5982484;23;20030;-48
2021/08/01 07:50:28;;;;;;;26.45;11.93;;;;;;;;;;6009152;23;20048;-49
2021/08/01 07:52:54;;;;;;;27.67;11.85;;;;;;;;;;5985741;23;20057;-48
2021/08/01 07:55:21;;;;;;;27.83;10.77;;;;;;;;;;6005399;23;20033;-48
2021/08/01 07:57:50;;;;;;;29.13;11.55;;;;;;;;;;5986110;23;20038;-48
2021/08/01 08:00:17;;;;;;;31.13;12.32;;;;;;;;;;5982212;23;20053;-49
2021/08/01 08:02:44;;;;;;;30.65;12.60;;;;;;;;;;5989316;23;20018;-49
2021/08/01 08:05:11;;;;;;;26.10;11.82;;;;;;;;;;5986236;23;20063;-49
2021/08/01 08:07:37;;;;;;;32.38;13.55;;;;;;;;;;5983183;23;20046;-49
2021/08/01 08:10:05;;;;;;;32.80;12.38;;;;;;;;;;5983851;23;20029;-50
2021/08/01 08:12:31;;;;;;;28.88;12.43;;;;;;;;;;5987494;23;20092;-49
2021/08/01 08:15:00;;;;;;;33.58;11.75;;;;;;;;;;5986430;23;20034;-51
2021/08/01 08:17:31;;;;;;;28.40;11.88;;;;;;;;;;5982859;23;20120;-49
2021/08/01 08:19:57;;;;;;;25.70;11.18;;;;;;;;;;5984198;23;20056;-48
2021/08/01 08:22:24;;;;;;;26.92;11.73;;;;;;;;;;5983974;23;20093;-47
2021/08/01 08:24:50;;;;;;;24.10;10.77;;;;;;;;;;5985112;23;20041;-50
2021/08/01 08:27:17;;;;;;;26.23;11.52;;;;;;;;;;5990737;23;20050;-48
2021/08/01 08:29:43;;;;;;;25.52;10.63;;;;;;;;;;5993352;23;20033;-47
2021/08/01 08:32:11;;;;;;;29.73;12.65;;;;;;;;;;5983364;23;20029;-48
2021/08/01 08:34:39;;;;;;;29.63;13.73;;;;;;;;;;5990781;23;20190;-50
2021/08/01 08:37:06;;;;;;;29.48;12.98;;;;;;;;;;5986680;23;20046;-50
2021/08/01 08:39:32;;;;;;;31.27;12.95;;;;;;;;;;5985503;23;20038;-49
2021/08/01 08:41:59;;;;;;;37.05;14.30;;;;;;;;;;5982028;23;20049;-49
2021/08/01 08:44:26;;;;;;;31.60;13.23;;;;;;;;;;5982237;23;20034;-50
2021/08/01 08:46:54;;;;;;;30.83;11.80;;;;;;;;;;5984279;23;20048;-50
2021/08/01 08:49:22;;;;;;;30.70;13.95;;;;;;;;;;5989339;23;20034;-49
2021/08/01 08:51:50;;;;;;;30.45;12.23;;;;;;;;;;5987707;23;20112;-52
2021/08/01 08:54:18;;;;;;;33.78;12.18;;;;;;;;;;5983651;23;20038;-48
2021/08/01 08:56:45;;;;;;;26.70;11.55;;;;;;;;;;5986727;23;20464;-48
2021/08/01 08:59:12;;;;;;;29.48;13.38;;;;;;;;;;6002234;23;20046;-49
2021/08/01 09:01:38;;;;;;;31.55;13.88;;;;;;;;;;5984872;23;20022;-50
2021/08/01 09:04:05;;;;;;;29.83;12.82;;;;;;;;;;6008469;23;20169;-48
2021/08/01 09:06:33;;;;;;;35.97;12.98;;;;;;;;;;5984124;23;20022;-48
2021/08/01 09:09:00;;;;;;;32.80;13.48;;;;;;;;;;5984026;23;20029;-49
2021/08/01 09:11:26;;;;;;;31.05;13.00;;;;;;;;;;5990192;23;20042;-48
2021/08/01 09:13:53;;;;;;;28.80;11.27;;;;;;;;;;5985015;23;20029;-48
2021/08/01 09:16:22;;;;;;;28.58;12.13;;;;;;;;;;5994212;23;20029;-51
2021/08/01 09:18:49;;;;;;;31.67;11.77;;;;;;;;;;5987610;23;20025;-52
2021/08/01 09:21:29;;;;;;;33.53;13.10;;;;;;;;;;5989927;23;20026;-49
2021/08/01 09:23:57;;;;;;;28.17;12.63;;;;;;;;;;6007037;23;20116;-49
2021/08/01 09:26:23;;;;;;;32.77;12.53;;;;;;;;;;5976458;23;20045;-50
2021/08/01 09:29:04;;;;;;;31.25;12.38;;;;;;;;;;5981353;23;20046;-50
2021/08/01 09:31:30;;;;;;;30.88;13.18;;;;;;;;;;5982711;23;20038;-48
2021/08/01 09:33:57;;;;;;;31.58;12.90;;;;;;;;;;6009596;23;20046;-53
2021/08/01 09:36:25;;;;;;;38.10;13.50;;;;;;;;;;5989466;23;20038;-51
2021/08/01 09:38:52;;;;;;;35.22;13.93;;;;;;;;;;5986555;23;20026;-50
2021/08/01 09:41:21;;;;;;;31.13;12.13;;;;;;;;;;5988481;23;20123;-51
2021/08/01 09:43:49;;;;;;;37.88;14.30;;;;;;;;;;5985332;23;20086;-49
2021/08/01 09:46:16;;;;;;;38.13;14.65;;;;;;;;;;6010740;23;20034;-49
2021/08/01 09:48:42;;;;;;;39.22;14.80;;;;;;;;;;5982792;23;20042;-47
2021/08/01 09:51:09;;;;;;;34.42;14.15;;;;;;;;;;5982397;23;20022;-50
2021/08/01 09:53:36;;;;;;;43.60;15.38;;;;;;;;;;5989705;23;20038;-51
2021/08/01 09:56:12;;;;;;;39.90;15.30;;;;;;;;;;6004702;23;20034;-50
2021/08/01 09:58:40;;;;;;;42.75;14.93;;;;;;;;;;5983680;23;20061;-51
2021/08/01 10:01:07;;;;;;;37.90;14.45;;;;;;;;;;5977686;23;20736;-52
2021/08/01 10:03:34;;;;;;;36.35;14.55;;;;;;;;;;5991791;23;20042;-52
2021/08/01 10:06:07;;;;;;;34.13;14.65;;;;;;;;;;5979967;23;20044;-52
2021/08/01 10:08:35;;;;;;;36.28;14.23;;;;;;;;;;5986029;23;20036;-49
2021/08/01 10:11:08;;;;;;;36.50;12.85;;;;;;;;;;5984344;23;20065;-50
2021/08/01 10:13:35;;;;;;;30.88;12.27;;;;;;;;;;5989586;23;20045;-51
2021/08/01 10:16:03;;;;;;;34.25;12.45;;;;;;;;;;5982039;23;20105;-50
2021/08/01 10:18:30;;;;;;;29.70;11.80;;;;;;;;;;5991013;23;20045;-50
2021/08/01 10:20:57;;;;;;;31.55;12.45;;;;;;;;;;5988931;23;20406;-50
2021/08/01 10:23:24;;;;;;;25.40;11.50;;;;;;;;;;5991477;23;20030;-52
2021/08/01 10:25:51;;;;;;;25.67;10.45;;;;;;;;;;5990911;23;20038;-52
2021/08/01 10:28:20;;;;;;;19.05;10.13;;;;;;;;;;5992944;23;20034;-51
2021/08/01 10:30:46;;;;;;;;;;;;;;;;;;5993022;23;20106;-48
2021/08/01 10:33:18;;;;;;;18.10;8.13;;;;;;;;;;6009680;23;19948;-53
2021/08/01 10:35:50;;;;;;;20.23;8.27;;;;;;;;;;5993217;23;20034;-52
2021/08/01 10:38:17;;;;;;;19.58;8.50;;;;;;;;;;5965579;23;20030;-52
2021/08/01 10:40:44;;;;;;;20.58;8.80;;;;;;;;;;5977222;23;20063;-51
2021/08/01 10:43:12;;;;;;;19.98;7.97;;;;;;;;;;5990295;23;20065;-48
2021/08/01 10:45:39;;;;;;;21.73;8.07;;;;;;;;;;5994974;23;20026;-49
2021/08/01 10:48:07;;;;;;;15.02;6.78;;;;;;;;;;5993144;23;20114;-49
2021/08/01 10:50:35;;;;;;;11.27;5.32;;;;;;;;;;5997329;23;20026;-54
2021/08/01 10:53:17;;;;;;;13.18;5.47;;;;;;;;;;5976873;23;20030;-52
2021/08/01 10:55:43;;;;;;;21.73;4.93;;;;;;;;;;5985423;23;20035;-48
2021/08/01 10:58:11;;;;;;;8.80;4.18;;;;;;;;;;5977803;24;20084;-50
2021/08/01 11:00:57;;;;;;;11.32;4.03;;;;;;;;;;5993586;23;20080;-49
2021/08/01 11:03:24;;;;;;;3.90;2.20;;;;;;;;;;6013834;23;20045;-51
2021/08/01 11:05:52;;;;;;;3.88;1.85;;;;;;;;;;5992413;23;20025;-50
2021/08/01 11:08:19;;;;;;;3.65;1.60;;;;;;;;;;6003153;23;20038;-48
2021/08/01 11:10:46;;;;;;;2.53;1.60;;;;;;;;;;5963558;24;20038;-49
2021/08/01 11:13:31;;;;;;;4.10;1.77;;;;;;;;;;5979334;24;20037;-50
2021/08/01 11:15:58;;;;;;;4.47;1.52;;;;;;;;;;6012998;23;20045;-48
2021/08/01 11:18:30;;;;;;;4.60;1.95;;;;;;;;;;5984645;23;20075;-52
2021/08/01 11:21:03;;;;;;;3.60;2.10;;;;;;;;;;5964024;23;20058;-49
2021/08/01 11:23:48;;;;;;;5.25;2.10;;;;;;;;;;5987740;23;20045;-50
2021/08/01 11:26:15;;;;;;;5.93;1.98;;;;;;;;;;5989256;23;20046;-51
2021/08/01 11:28:42;;;;;;;3.58;1.88;;;;;;;;;;5969791;23;20044;-52
2021/08/01 11:31:13;;;;;;;4.68;1.90;;;;;;;;;;5991598;23;20124;-50
2021/08/01 11:33:41;;;;;;;3.40;1.60;;;;;;;;;;5991928;23;20037;-51
2021/08/01 11:36:28;;;;;;;3.13;1.70;;;;;;;;;;5992638;23;20045;-50
2021/08/01 11:39:07;;;;;;;2.63;1.63;;;;;;;;;;5989641;23;20038;-50
2021/08/01 11:41:41;;;;;;;3.60;1.73;;;;;;;;;;5987246;23;20042;-51
2021/08/01 11:44:11;;;;;;;4.60;2.03;;;;;;;;;;5987730;23;20038;-51
2021/08/01 11:46:59;;;;;;;5.35;2.03;;;;;;;;;;5991259;23;20042;-51
2021/08/01 11:49:26;;;;;;;3.63;2.00;;;;;;;;;;5984308;23;20073;-52
2021/08/01 11:51:55;;;;;;;4.78;2.17;;;;;;;;;;6018228;23;20034;-50
2021/08/01 11:54:21;;;;;;;;;;;;;;;;;;5990873;23;20038;-52
2021/08/01 11:56:48;;;;;;;4.07;2.22;;;;;;;;;;6013028;23;19924;-53
2021/08/01 11:59:15;;;;;;;6.22;2.40;;;;;;;;;;5991043;23;20030;-50
2021/08/01 12:01:41;;;;;;;3.65;1.92;;;;;;;;;;5981950;23;20066;-48
2021/08/01 12:04:09;;;;;;;10.40;3.30;;;;;;;;;;5962662;23;20128;-52
2021/08/01 12:06:36;;;;;;;7.05;3.15;;;;;;;;;;5986140;23;20149;-52
2021/08/01 12:09:16;;;;;;;8.95;3.72;;;;;;;;;;5990850;23;20034;-50
2021/08/01 12:11:43;;;;;;;5.60;2.50;;;;;;;;;;6006563;23;20033;-48
2021/08/01 12:14:10;;;;;;;5.00;2.28;;;;;;;;;;5991570;23;20030;-48
2021/08/01 12:16:37;;;;;;;4.22;2.25;;;;;;;;;;5972000;23;20112;-52
2021/08/01 12:19:16;;;;;;;5.45;2.05;;;;;;;;;;5978956;23;20022;-51
2021/08/01 12:21:43;;;;;;;8.23;2.30;;;;;;;;;;5999809;23;20282;-51
2021/08/01 12:24:24;;;;;;;5.85;2.47;;;;;;;;;;5995688;23;20048;-48
2021/08/01 12:26:52;;;;;;;8.75;2.60;;;;;;;;;;5993542;23;20030;-50
2021/08/01 12:29:27;;;;;;;5.55;2.40;;;;;;;;;;5995732;23;20034;-53
2021/08/01 12:31:53;;;;;;;5.80;2.85;;;;;;;;;;5972271;23;20038;-51
2021/08/01 12:34:21;;;;;;;7.18;3.47;;;;;;;;;;5965140;24;20026;-49
2021/08/01 12:36:47;;;;;;;6.28;3.13;;;;;;;;;;5975961;23;20104;-50
2021/08/01 12:39:17;;;;;;;6.40;3.05;;;;;;;;;;6016519;23;20030;-48
2021/08/01 12:41:44;;;;;;;6.75;3.10;;;;;;;;;;5983892;23;20062;-50
2021/08/01 12:44:22;;;;;;;6.47;2.70;;;;;;;;;;5964833;23;20052;-53
2021/08/01 12:46:48;;;;;;;6.10;3.03;;;;;;;;;;5991859;23;20084;-51
2021/08/01 12:49:15;;;;;;;10.18;5.30;;;;;;;;;;5994944;23;20034;-51
2021/08/01 12:51:46;;;;;;;7.68;3.65;;;;;;;;;;5989427;23;20142;-49
2021/08/01 12:54:13;;;;;;;5.00;2.95;;;;;;;;;;5992418;23;20045;-51
2021/08/01 12:56:54;;;;;;;6.80;2.60;;;;;;;;;;5990041;23;20042;-53
2021/08/01 12:59:22;;;;;;;5.57;2.42;;;;;;;;;;5992165;23;20037;-52
2021/08/01 13:01:51;;;;;;;4.97;2.70;;;;;;;;;;5992241;23;20034;-53
2021/08/01 13:04:18;;;;;;;8.02;2.70;;;;;;;;;;5989520;23;20074;-50
2021/08/01 13:06:44;;;;;;;4.72;2.53;;;;;;;;;;5993028;23;20014;-50
2021/08/01 13:09:19;;;;;;;5.70;2.63;;;;;;;;;;5962734;23;20119;-52
2021/08/01 13:11:45;;;;;;;3.72;2.10;;;;;;;;;;6012839;23;20036;-53
2021/08/01 13:14:12;;;;;;;3.65;2.28;;;;;;;;;;5988649;23;20065;-51
2021/08/01 13:16:49;;;;;;;3.25;1.85;;;;;;;;;;5991889;23;20061;-50
2021/08/01 13:19:16;;;;;;;3.83;1.90;;;;;;;;;;5965517;23;20038;-52
2021/08/01 13:22:01;;;;;;;3.38;1.70;;;;;;;;;;5964837;23;20211;-51
2021/08/01 13:24:32;;;;;;;4.20;2.42;;;;;;;;;;5986226;23;20048;-51
2021/08/01 13:26:59;;;;;;;5.43;2.10;;;;;;;;;;5994138;23;20026;-52
2021/08/01 13:29:26;;;;;;;5.72;2.33;;;;;;;;;;5991186;23;20045;-51
2021/08/01 13:31:54;;;;;;;3.92;1.70;;;;;;;;;;5990086;23;20034;-53
2021/08/01 13:34:21;;;;;;;;;;;;;;;;;;5990067;23;20038;-55
2021/08/01 13:36:55;;;;;;;2.55;1.60;;;;;;;;;;6004776;23;19916;-52
2021/08/01 13:39:24;;;;;;;3.95;2.10;;;;;;;;;;6002543;23;20036;-52
2021/08/01 13:42:03;;;;;;;6.65;2.08;;;;;;;;;;5987972;23;20034;-52
2021/08/01 13:44:30;;;;;;;5.13;2.15;;;;;;;;;;5999329;23;20029;-51
2021/08/01 13:47:17;;;;;;;4.20;2.25;;;;;;;;;;5993338;23;20052;-51
2021/08/01 13:49:44;;;;;;;4.88;2.17;;;;;;;;;;5989325;23;20120;-52
2021/08/01 13:52:11;;;;;;;3.58;2.00;;;;;;;;;;6015292;23;20026;-49
2021/08/01 13:54:45;;;;;;;3.85;1.70;;;;;;;;;;6007940;23;20045;-49
2021/08/01 13:57:13;;;;;;;5.13;2.10;;;;;;;;;;5993026;23;20041;-50
2021/08/01 13:59:39;;;;;;;6.25;2.15;;;;;;;;;;5993612;23;20045;-51
2021/08/01 14:02:06;;;;;;;4.43;2.10;;;;;;;;;;5997317;23;20085;-49
2021/08/01 14:04:36;;;;;;;4.03;2.20;;;;;;;;;;5988215;23;20025;-51
2021/08/01 14:07:02;;;;;;;4.00;2.20;;;;;;;;;;5994688;23;20155;-48
2021/08/01 14:09:29;;;;;;;6.85;2.67;;;;;;;;;;5987215;23;20041;-53
2021/08/01 14:11:55;;;;;;;4.43;2.45;;;;;;;;;;5994430;23;20177;-51
2021/08/01 14:14:22;;;;;;;5.78;2.35;;;;;;;;;;6016660;23;20022;-52
2021/08/01 14:16:49;;;;;;;5.55;2.45;;;;;;;;;;5981818;23;20112;-48
2021/08/01 14:19:16;;;;;;;4.65;2.60;;;;;;;;;;6009960;23;20030;-48
2021/08/01 14:21:44;;;;;;;6.22;2.95;;;;;;;;;;5988758;23;20049;-50
2021/08/01 14:24:11;;;;;;;6.63;2.92;;;;;;;;;;5992063;23;20112;-53
2021/08/01 14:26:38;;;;;;;4.07;2.58;;;;;;;;;;5982623;23;20055;-51
2021/08/01 14:29:05;;;;;;;6.72;2.75;;;;;;;;;;5983891;23;20046;-52
2021/08/01 14:31:32;;;;;;;8.85;2.95;;;;;;;;;;5994198;23;20034;-54
2021/08/01 14:33:59;;;;;;;6.38;2.40;;;;;;;;;;5962144;23;20386;-53
2021/08/01 14:36:26;;;;;;;5.20;2.45;;;;;;;;;;5974911;23;20022;-52
2021/08/01 14:38:55;;;;;;;5.25;2.28;;;;;;;;;;5982067;23;20058;-51
2021/08/01 14:41:22;;;;;;;4.47;2.25;;;;;;;;;;5981854;23;20053;-51